createdAt,value
2019-03-22T00:01:44.848Z,42.40
2019-03-22T00:04:14.269Z,39.03
2019-03-22T00:06:44.684Z,40.47
2019-03-22T00:09:14.101Z,40.10
2019-03-22T00:11:43.849Z,46.10
2019-03-22T00:14:13.272Z,41.17
2019-03-22T00:16:42.688Z,38.80
2019-03-22T00:19:12.120Z,43.90
2019-03-22T00:21:42.672Z,43.23
2019-03-22T00:24:12.106Z,44.53
2019-03-22T00:26:41.516Z,42.43
2019-03-22T00:29:10.957Z,43.10
2019-03-22T00:31:40.452Z,45.47
2019-03-22T00:34:09.884Z,42.07
2019-03-22T00:36:39.320Z,47.20
2019-03-22T00:39:08.768Z,41.77
2019-03-22T00:41:38.192Z,48.33
2019-03-22T00:44:07.640Z,43.30
2019-03-22T00:46:37.057Z,44.03
2019-03-22T00:49:06.801Z,39.97
2019-03-22T00:51:36.224Z,40.03
2019-03-22T00:54:05.668Z,43.00
2019-03-22T00:56:35.098Z,41.63
2019-03-22T00:59:04.533Z,41.30
2019-03-22T01:01:33.969Z,43.07
2019-03-22T01:04:03.389Z,43.73
2019-03-22T01:06:33.873Z,42.30
2019-03-22T01:09:03.547Z,43.43
2019-03-22T01:11:33.441Z,52.17
2019-03-22T01:14:02.853Z,50.43
2019-03-22T01:16:32.285Z,44.77
2019-03-22T01:19:01.693Z,43.50
2019-03-22T01:21:31.116Z,47.77
2019-03-22T01:24:00.529Z,50.00
2019-03-22T01:26:29.957Z,45.57
2019-03-22T01:28:59.384Z,49.93
2019-03-22T01:31:28.836Z,51.40
2019-03-22T01:33:58.263Z,52.60
2019-03-22T01:36:28.036Z,56.40
2019-03-22T01:38:57.449Z,57.13
2019-03-22T01:41:26.872Z,55.93
2019-03-22T01:43:56.285Z,52.50
2019-03-22T01:46:25.728Z,60.33
2019-03-22T01:48:56.110Z,62.30
2019-03-22T01:51:25.554Z,56.80
2019-03-22T01:53:54.968Z,55.20
2019-03-22T01:56:24.497Z,50.70
2019-03-22T01:58:53.916Z,45.73
2019-03-22T02:01:23.521Z,48.97
2019-03-22T02:03:53.012Z,51.00
2019-03-22T02:06:22.449Z,53.00
2019-03-22T02:08:51.898Z,52.90
2019-03-22T02:11:21.336Z,51.20
2019-03-22T02:13:50.779Z,52.90
2019-03-22T02:16:20.224Z,55.43
2019-03-22T02:18:49.653Z,48.03
2019-03-22T02:21:19.082Z,53.40
2019-03-22T02:23:48.826Z,49.33
2019-03-22T02:26:18.248Z,50.10
2019-03-22T02:28:47.678Z,50.57
2019-03-22T02:31:17.101Z,51.13
2019-03-22T02:33:46.531Z,51.73
2019-03-22T02:36:16.204Z,51.33
2019-03-22T02:38:45.645Z,58.27
2019-03-22T02:41:15.444Z,55.83
2019-03-22T02:43:44.890Z,56.50
2019-03-22T02:46:14.367Z,51.13
2019-03-22T02:48:44.149Z,48.60
2019-03-22T02:51:13.587Z,53.13
2019-03-22T02:53:43.144Z,52.37
2019-03-22T02:56:12.724Z,56.80
2019-03-22T02:58:42.392Z,52.33
2019-03-22T03:04:23.527Z,50.17
2019-03-22T03:06:52.944Z,61.70
2019-03-22T03:09:22.753Z,57.63
2019-03-22T03:11:52.162Z,53.57
2019-03-22T03:14:21.591Z,54.17
2019-03-22T03:16:51.577Z,48.50
2019-03-22T03:19:21.037Z,53.67
2019-03-22T03:21:50.537Z,50.77
2019-03-22T03:24:19.948Z,56.13
2019-03-22T03:26:49.372Z,52.90
2019-03-22T03:29:19.884Z,53.47
2019-03-22T03:31:49.303Z,61.33
2019-03-22T03:34:18.757Z,57.80
2019-03-22T03:36:48.227Z,53.13
2019-03-22T03:39:17.638Z,50.10
2019-03-22T03:41:47.047Z,54.97
2019-03-22T03:44:16.464Z,51.50
2019-03-22T03:46:45.944Z,56.10
2019-03-22T03:49:15.352Z,53.57
2019-03-22T03:51:44.799Z,54.70
2019-03-22T03:54:14.218Z,52.87
2019-03-22T03:56:43.640Z,55.93
2019-03-22T03:59:13.072Z,51.63
2019-03-22T04:01:42.490Z,50.70
2019-03-22T04:04:12.209Z,56.37
2019-03-22T04:06:41.620Z,50.60
2019-03-22T04:09:11.076Z,52.90
2019-03-22T04:11:40.477Z,54.23
2019-03-22T04:14:09.904Z,55.10
2019-03-22T04:16:39.348Z,55.07
2019-03-22T04:19:09.063Z,52.30
2019-03-22T04:21:38.582Z,57.00
2019-03-22T04:24:08.139Z,58.13
2019-03-22T04:26:37.576Z,59.23
2019-03-22T04:29:08.373Z,58.50
2019-03-22T04:31:38.068Z,53.70
2019-03-22T04:34:07.479Z,55.10
2019-03-22T04:36:36.910Z,55.70
2019-03-22T04:39:07.055Z,57.80
2019-03-22T04:41:36.512Z,56.53
2019-03-22T04:44:05.918Z,57.90
2019-03-22T04:46:36.218Z,56.80
2019-03-22T04:49:05.695Z,50.70
2019-03-22T04:51:35.289Z,58.30
2019-03-22T04:54:05.300Z,60.63
2019-03-22T04:56:36.409Z,64.27
2019-03-22T04:59:18.501Z,61.03
2019-03-22T05:01:39.228Z,62.00
2019-03-22T05:04:09.041Z,67.17
2019-03-22T05:06:39.539Z,66.60
2019-03-22T05:09:10.587Z,95.50
2019-03-22T05:11:43.776Z,72.90
2019-03-22T05:14:13.892Z,71.90
2019-03-22T05:16:45.840Z,86.33
2019-03-22T05:19:16.167Z,71.00
2019-03-22T05:21:46.443Z,69.23
2019-03-22T05:24:18.188Z,71.83
2019-03-22T05:26:47.547Z,71.43
2019-03-22T05:29:17.259Z,80.43
2019-03-22T05:32:08.555Z,64.97
2019-03-22T05:34:37.971Z,67.50
2019-03-22T05:37:07.395Z,74.93
2019-03-22T05:39:36.787Z,64.70
2019-03-22T05:42:06.188Z,70.57
2019-03-22T05:44:35.635Z,67.93
2019-03-22T05:47:05.158Z,67.47
2019-03-22T05:49:34.601Z,72.00
2019-03-22T05:52:04.184Z,72.17
2019-03-22T05:54:33.603Z,67.63
2019-03-22T05:57:12.731Z,79.83
2019-03-22T05:59:42.330Z,72.33
2019-03-22T06:02:05.234Z,84.80
2019-03-22T06:04:34.655Z,75.70
2019-03-22T06:07:04.144Z,75.53
2019-03-22T06:09:33.575Z,55.27
2019-03-22T06:12:02.971Z,68.73
2019-03-22T06:14:32.404Z,66.47
2019-03-22T06:17:01.794Z,77.13
2019-03-22T06:19:31.377Z,70.47
2019-03-22T06:22:00.798Z,68.87
2019-03-22T06:24:30.235Z,66.87
2019-03-22T06:26:59.664Z,71.47
2019-03-22T06:29:29.101Z,76.03
2019-03-22T06:31:58.536Z,70.80
2019-03-22T06:34:28.071Z,71.57
2019-03-22T06:36:57.482Z,67.03
2019-03-22T06:39:27.175Z,63.00
2019-03-22T06:42:03.234Z,65.07
2019-03-22T06:44:32.823Z,74.53
2019-03-22T06:47:02.241Z,67.67
2019-03-22T06:49:31.681Z,68.10
2019-03-22T06:52:01.102Z,70.17
2019-03-22T06:54:31.858Z,71.23
2019-03-22T06:57:02.001Z,79.87
2019-03-22T06:59:31.408Z,78.67
2019-03-22T07:02:00.863Z,66.80
2019-03-22T07:04:30.347Z,64.40
2019-03-22T07:06:59.787Z,72.03
2019-03-22T07:09:29.197Z,76.43
2019-03-22T07:11:58.613Z,73.23
2019-03-22T07:14:28.029Z,70.83
2019-03-22T07:16:59.016Z,74.33
2019-03-22T07:19:28.551Z,64.47
2019-03-22T07:21:58.023Z,68.47
2019-03-22T07:24:27.463Z,70.43
2019-03-22T07:26:57.055Z,70.53
2019-03-22T07:29:26.464Z,66.03
2019-03-22T07:31:55.941Z,69.10
2019-03-22T07:34:25.355Z,64.87
2019-03-22T07:36:54.800Z,64.97
2019-03-22T07:39:24.209Z,68.80
2019-03-22T07:41:53.727Z,78.53
2019-03-22T07:44:23.114Z,84.10
2019-03-22T07:46:52.531Z,88.97
2019-03-22T07:49:21.935Z,83.43
2019-03-22T07:51:51.363Z,80.63
2019-03-22T07:54:20.791Z,90.90
2019-03-22T07:56:50.249Z,87.73
2019-03-22T07:59:19.699Z,98.10
2019-03-22T08:01:50.184Z,86.10
2019-03-22T08:04:19.595Z,94.50
2019-03-22T08:06:49.072Z,83.80
2019-03-22T08:09:18.486Z,91.90
2019-03-22T08:11:47.899Z,95.57
2019-03-22T08:14:17.360Z,86.93
2019-03-22T08:16:46.856Z,91.60
2019-03-22T08:19:16.345Z,92.27
2019-03-22T08:21:46.711Z,84.03
2019-03-22T08:24:16.238Z,79.13
2019-03-22T08:26:45.648Z,81.50
2019-03-22T08:29:15.115Z,77.03
2019-03-22T08:31:44.554Z,77.77
2019-03-22T08:34:14.047Z,87.87
2019-03-22T08:36:43.442Z,84.97
2019-03-22T08:39:13.294Z,87.70
2019-03-22T08:41:42.768Z,78.97
2019-03-22T08:44:12.243Z,78.63
2019-03-22T08:46:41.667Z,76.73
2019-03-22T08:49:11.189Z,82.70
2019-03-22T08:51:40.734Z,78.00
2019-03-22T08:54:10.127Z,78.23
2019-03-22T08:56:39.591Z,70.50
2019-03-22T08:59:09.118Z,67.63
2019-03-22T09:01:38.644Z,79.33
2019-03-22T09:04:08.083Z,67.80
2019-03-22T09:06:37.832Z,66.30
2019-03-22T09:09:07.843Z,69.73
2019-03-22T09:11:37.376Z,75.60
2019-03-22T09:14:06.768Z,71.93
2019-03-22T09:16:36.207Z,72.97
2019-03-22T09:19:05.671Z,63.10
2019-03-22T09:21:35.096Z,75.50
2019-03-22T09:24:04.605Z,71.43
2019-03-22T09:26:46.876Z,66.63
2019-03-22T09:29:05.232Z,54.03
2019-03-22T09:31:34.704Z,57.77
2019-03-22T09:34:04.196Z,56.93
2019-03-22T09:36:33.663Z,65.40
2019-03-22T09:39:03.300Z,57.50
2019-03-22T09:41:32.756Z,73.00
2019-03-22T09:44:02.313Z,65.20
2019-03-22T09:46:31.802Z,63.23
2019-03-22T09:49:01.223Z,64.83
2019-03-22T09:51:30.978Z,67.33
2019-03-22T09:54:00.471Z,61.27
2019-03-22T09:56:29.910Z,65.00
2019-03-22T09:58:59.383Z,67.37
2019-03-22T10:01:28.826Z,62.83
2019-03-22T10:03:58.319Z,68.90
2019-03-22T10:06:27.703Z,67.00
2019-03-22T10:08:57.149Z,64.53
2019-03-22T10:11:26.571Z,78.37
2019-03-22T10:13:56.016Z,64.53
2019-03-22T10:16:25.451Z,80.60
2019-03-22T10:18:54.944Z,81.73
2019-03-22T10:21:24.466Z,70.67
2019-03-22T10:23:53.981Z,88.03
2019-03-22T10:26:23.837Z,77.17
2019-03-22T10:28:53.352Z,90.53
2019-03-22T10:31:36.216Z,70.63
2019-03-22T10:33:54.033Z,76.20
2019-03-22T10:36:23.469Z,87.57
2019-03-22T10:38:53.128Z,80.10
2019-03-22T10:41:23.765Z,133.73
2019-03-22T10:43:53.374Z,70.40
2019-03-22T10:46:22.833Z,72.60
2019-03-22T10:48:52.359Z,78.83
2019-03-22T10:51:22.159Z,73.60
2019-03-22T10:53:51.713Z,69.70
2019-03-22T10:56:21.191Z,74.77
2019-03-22T10:58:50.695Z,79.00
2019-03-22T11:01:20.112Z,76.77
2019-03-22T11:03:49.680Z,78.60
2019-03-22T11:06:25.993Z,79.23
2019-03-22T11:08:50.475Z,82.37
2019-03-22T11:11:19.959Z,76.40
2019-03-22T11:13:49.408Z,83.63
2019-03-22T11:16:18.885Z,75.40
2019-03-22T11:18:48.315Z,79.23
2019-03-22T11:21:17.740Z,80.73
2019-03-22T11:23:47.162Z,87.33
2019-03-22T11:26:16.595Z,75.87
2019-03-22T11:28:46.022Z,70.13
2019-03-22T11:31:15.493Z,65.87
2019-03-22T11:33:45.012Z,74.63
2019-03-22T11:36:14.462Z,82.07
2019-03-22T11:38:43.916Z,75.10
2019-03-22T11:41:13.325Z,85.53
2019-03-22T11:43:42.742Z,76.90
2019-03-22T11:46:12.522Z,73.77
2019-03-22T11:48:41.920Z,69.00
2019-03-22T11:51:11.424Z,78.60
2019-03-22T11:53:40.908Z,73.37
2019-03-22T11:56:10.355Z,73.97
2019-03-22T11:58:39.830Z,76.53
2019-03-22T12:01:19.130Z,74.37
2019-03-22T12:03:40.502Z,77.37
2019-03-22T12:06:09.995Z,81.70
2019-03-22T12:08:39.409Z,71.67
2019-03-22T12:11:08.828Z,78.20
2019-03-22T12:13:38.289Z,84.37
2019-03-22T12:16:07.730Z,75.20
2019-03-22T12:18:37.168Z,77.23
2019-03-22T12:21:06.609Z,73.87
2019-03-22T12:23:36.042Z,77.90
2019-03-22T12:26:06.487Z,84.13
2019-03-22T12:28:36.132Z,72.83
2019-03-22T12:31:05.647Z,70.93
2019-03-22T12:33:35.057Z,76.90
2019-03-22T12:36:04.493Z,68.67
2019-03-22T12:38:33.854Z,77.30
2019-03-22T12:41:03.343Z,70.10
2019-03-22T12:43:34.204Z,69.93
2019-03-22T12:46:03.856Z,70.17
2019-03-22T12:48:33.236Z,76.60
2019-03-22T12:51:02.665Z,75.50
2019-03-22T12:53:32.092Z,71.57
2019-03-22T12:56:01.523Z,85.23
2019-03-22T12:58:31.003Z,78.13
2019-03-22T13:01:00.927Z,72.40
2019-03-22T13:03:30.335Z,71.10
2019-03-22T13:05:59.783Z,76.20
2019-03-22T13:08:29.219Z,79.93
2019-03-22T13:10:58.627Z,76.53
2019-03-22T13:13:28.104Z,73.93
2019-03-22T13:15:58.499Z,78.10
2019-03-22T13:18:27.915Z,75.70
2019-03-22T13:20:58.305Z,76.20
2019-03-22T13:23:27.743Z,76.57
2019-03-22T13:25:58.475Z,71.47
2019-03-22T13:28:27.908Z,74.23
2019-03-22T13:30:58.653Z,74.07
2019-03-22T13:33:28.147Z,78.37
2019-03-22T13:35:57.570Z,74.77
2019-03-22T13:38:27.028Z,76.60
2019-03-22T13:40:57.484Z,77.10
2019-03-22T13:43:26.887Z,73.60
2019-03-22T13:45:56.246Z,75.40
2019-03-22T13:48:25.614Z,74.43
2019-03-22T13:50:55.065Z,78.37
2019-03-22T13:53:25.404Z,81.53
2019-03-22T13:55:54.844Z,73.93
2019-03-22T13:58:25.400Z,70.30
2019-03-22T14:00:55.051Z,69.70
2019-03-22T14:03:25.408Z,83.47
2019-03-22T14:05:54.926Z,71.30
2019-03-22T14:08:24.406Z,79.70
2019-03-22T14:10:53.919Z,77.77
2019-03-22T14:13:23.620Z,69.57
2019-03-22T14:15:53.039Z,77.80
2019-03-22T14:18:22.483Z,76.50
2019-03-22T14:20:51.863Z,80.70
2019-03-22T14:23:21.260Z,80.60
2019-03-22T14:25:50.647Z,80.57
2019-03-22T14:28:20.031Z,79.37
2019-03-22T14:30:49.404Z,78.30
2019-03-22T14:33:18.828Z,79.03
2019-03-22T14:35:48.196Z,72.73
2019-03-22T14:38:17.603Z,74.03
2019-03-22T14:40:47.010Z,78.80
2019-03-22T14:43:16.423Z,76.30
2019-03-22T14:45:45.811Z,78.47
2019-03-22T14:48:15.187Z,75.17
2019-03-22T14:50:44.616Z,81.90
2019-03-22T14:53:14.331Z,69.33
2019-03-22T14:55:44.221Z,79.67
2019-03-22T14:58:13.588Z,70.50
2019-03-22T15:00:42.991Z,80.07
2019-03-22T15:03:25.697Z,77.97
2019-03-22T15:05:55.439Z,81.17
2019-03-22T15:08:24.810Z,81.40
2019-03-22T15:10:54.302Z,77.17
2019-03-22T15:13:28.459Z,78.83
2019-03-22T15:16:23.069Z,68.90
2019-03-22T15:19:20.911Z,79.50
2019-03-22T15:22:08.598Z,67.80
2019-03-22T15:24:56.025Z,76.27
2019-03-22T15:27:42.215Z,77.27
2019-03-22T15:30:38.330Z,72.93
2019-03-22T15:33:16.600Z,82.93
2019-03-22T15:35:59.224Z,73.57
2019-03-22T15:38:48.138Z,79.43
2019-03-22T15:41:17.829Z,77.23
2019-03-22T15:43:47.269Z,81.33
2019-03-22T15:46:16.724Z,68.93
2019-03-22T15:48:46.227Z,71.63
2019-03-22T15:51:15.658Z,76.83
2019-03-22T15:53:45.119Z,74.87
2019-03-22T15:56:14.547Z,74.17
2019-03-22T15:58:43.992Z,76.47
2019-03-22T16:01:13.703Z,72.60
2019-03-22T16:03:44.466Z,69.67
2019-03-22T16:06:14.226Z,78.57
2019-03-22T16:08:43.671Z,79.00
2019-03-22T16:11:13.087Z,78.00
2019-03-22T16:13:53.617Z,86.30
2019-03-22T16:16:23.434Z,75.70
2019-03-22T16:18:52.947Z,79.10
2019-03-22T16:21:22.548Z,78.10
2019-03-22T16:23:52.084Z,79.87
2019-03-22T16:26:21.542Z,81.90
2019-03-22T16:28:50.991Z,82.13
2019-03-22T16:31:20.542Z,76.40
2019-03-22T16:33:54.335Z,73.00
2019-03-22T16:36:21.227Z,77.00
2019-03-22T16:38:50.832Z,76.83
2019-03-22T16:41:20.310Z,85.50
2019-03-22T16:43:49.850Z,84.07
2019-03-22T16:46:19.458Z,93.07
2019-03-22T16:48:49.013Z,84.30
2019-03-22T16:51:18.595Z,79.93
2019-03-22T16:53:48.047Z,74.17
2019-03-22T16:56:17.479Z,72.43
2019-03-22T16:58:47.992Z,81.43
2019-03-22T17:01:17.520Z,74.93
2019-03-22T17:03:46.949Z,76.80
2019-03-22T17:06:16.429Z,87.00
2019-03-22T17:08:45.860Z,88.33
2019-03-22T17:11:15.280Z,83.67
2019-03-22T17:13:44.733Z,81.93
2019-03-22T17:16:14.137Z,85.57
2019-03-22T17:18:44.896Z,77.07
2019-03-22T17:21:14.579Z,76.17
2019-03-22T17:23:46.674Z,84.63
2019-03-22T17:26:16.277Z,83.93
2019-03-22T17:28:45.709Z,72.13
2019-03-22T17:31:15.115Z,74.40
2019-03-22T17:33:44.542Z,73.80
2019-03-22T17:36:13.943Z,75.50
2019-03-22T17:38:43.388Z,77.30
2019-03-22T17:41:12.800Z,79.23
2019-03-22T17:43:42.213Z,83.67
2019-03-22T17:46:11.631Z,83.73
2019-03-22T17:48:41.052Z,75.80
2019-03-22T17:51:10.470Z,75.93
2019-03-22T17:53:39.956Z,70.43
2019-03-22T17:56:09.367Z,74.00
2019-03-22T17:58:38.775Z,75.43
2019-03-22T18:01:08.236Z,75.00
2019-03-22T18:03:37.670Z,74.63
2019-03-22T18:06:07.092Z,81.93
2019-03-22T18:08:37.357Z,78.67
2019-03-22T18:11:06.931Z,75.47
2019-03-22T18:13:36.409Z,75.70
2019-03-22T18:16:05.827Z,83.20
2019-03-22T18:18:35.262Z,97.17
2019-03-22T18:21:04.655Z,83.57
2019-03-22T18:23:35.917Z,100.40
2019-03-22T18:26:05.637Z,94.93
2019-03-22T18:28:35.055Z,101.50
2019-03-22T18:31:04.530Z,90.03
2019-03-22T18:33:33.971Z,87.63
2019-03-22T18:36:03.676Z,80.60
2019-03-22T18:38:33.095Z,87.87
2019-03-22T18:41:02.504Z,86.63
2019-03-22T18:43:31.901Z,81.27
2019-03-22T18:46:01.313Z,83.37
2019-03-22T18:48:30.934Z,73.80
2019-03-22T18:51:00.357Z,72.40
2019-03-22T18:53:29.816Z,71.90
2019-03-22T18:55:59.232Z,80.67
2019-03-22T18:58:28.660Z,74.93
2019-03-22T19:00:58.159Z,78.73
2019-03-22T19:03:27.587Z,79.20
2019-03-22T19:05:56.968Z,78.20
2019-03-22T19:08:26.400Z,85.57
2019-03-22T19:10:55.791Z,75.27
2019-03-22T19:13:30.713Z,67.47
2019-03-22T19:15:56.307Z,72.67
2019-03-22T19:18:25.998Z,75.37
2019-03-22T19:20:55.442Z,74.93
2019-03-22T19:23:24.932Z,82.20
2019-03-22T19:25:54.358Z,76.80
2019-03-22T19:28:24.068Z,75.63
2019-03-22T19:30:53.494Z,81.80
2019-03-22T19:33:22.876Z,71.17
2019-03-22T19:35:52.303Z,76.47
2019-03-22T19:38:21.691Z,83.03
2019-03-22T19:40:51.087Z,76.40
2019-03-22T19:43:20.459Z,81.07
2019-03-22T19:45:49.849Z,72.47
2019-03-22T19:48:19.214Z,78.80
2019-03-22T19:50:48.857Z,72.80
2019-03-22T19:53:18.592Z,77.73
2019-03-22T19:55:49.046Z,80.07
2019-03-22T19:58:18.685Z,84.73
2019-03-22T20:00:48.102Z,75.60
2019-03-22T20:03:17.479Z,78.73
2019-03-22T20:05:47.372Z,85.33
2019-03-22T20:08:16.744Z,87.67
2019-03-22T20:10:46.138Z,79.83
2019-03-22T20:13:15.499Z,81.03
2019-03-22T20:15:44.898Z,80.83
2019-03-22T20:18:14.255Z,82.30
2019-03-22T20:20:43.740Z,80.27
2019-03-22T20:23:13.139Z,89.07
2019-03-22T20:25:42.524Z,84.63
2019-03-22T20:28:11.948Z,91.20
2019-03-22T20:30:41.428Z,82.20
2019-03-22T20:33:10.815Z,85.97
2019-03-22T20:35:40.186Z,89.33
2019-03-22T20:38:09.557Z,86.23
2019-03-22T20:40:38.942Z,88.20
2019-03-22T20:43:08.304Z,90.43
2019-03-22T20:45:37.685Z,80.00
2019-03-22T20:48:07.047Z,89.20
2019-03-22T20:50:36.786Z,81.20
2019-03-22T20:53:06.147Z,83.50
2019-03-22T20:55:35.543Z,82.43
2019-03-22T20:58:04.962Z,87.83
2019-03-22T21:00:34.416Z,90.17
2019-03-22T21:03:04.190Z,82.70
2019-03-22T21:05:33.597Z,81.93
2019-03-22T21:08:03.006Z,88.23
2019-03-22T21:10:32.715Z,88.47
2019-03-22T21:13:02.118Z,95.57
2019-03-22T21:15:31.568Z,77.53
2019-03-22T21:18:00.931Z,93.33
2019-03-22T21:20:30.317Z,98.50
2019-03-22T21:22:59.713Z,89.67
2019-03-22T21:25:29.102Z,85.60
2019-03-22T21:27:58.471Z,85.90
2019-03-22T21:30:27.947Z,94.40
2019-03-22T21:32:57.355Z,90.53
2019-03-22T21:35:36.679Z,96.47
2019-03-22T21:37:57.919Z,90.37
2019-03-22T21:40:27.347Z,88.80
2019-03-22T21:42:56.758Z,90.07
2019-03-22T21:45:26.165Z,91.37
2019-03-22T21:47:55.552Z,93.50
2019-03-22T21:50:24.929Z,91.40
2019-03-22T21:52:54.315Z,90.77
2019-03-22T21:55:23.706Z,87.17
2019-03-22T21:57:53.076Z,90.27
2019-03-22T22:00:22.831Z,98.23
2019-03-22T22:02:52.227Z,91.87
2019-03-22T22:05:21.975Z,83.83
2019-03-22T22:07:51.611Z,92.60
2019-03-22T22:10:21.017Z,93.73
2019-03-22T22:12:50.449Z,95.80
2019-03-22T22:15:19.843Z,95.37
2019-03-22T22:17:49.253Z,95.80
2019-03-22T22:20:28.394Z,90.50
2019-03-22T22:22:49.755Z,85.97
2019-03-22T22:25:20.528Z,96.03
2019-03-22T22:27:50.006Z,87.73
2019-03-22T22:30:19.468Z,91.27
2019-03-22T22:32:48.854Z,101.60
2019-03-22T22:35:18.266Z,98.53
2019-03-22T22:37:47.646Z,97.47
2019-03-22T22:40:17.041Z,98.47
2019-03-22T22:42:46.441Z,90.73
2019-03-22T22:45:15.929Z,101.13
2019-03-22T22:47:45.385Z,100.13
2019-03-22T22:50:14.800Z,95.37
2019-03-22T22:52:44.203Z,89.13
2019-03-22T22:55:14.402Z,95.67
2019-03-22T22:57:43.823Z,94.33
2019-03-22T23:00:14.059Z,92.83
2019-03-22T23:02:44.300Z,87.77
2019-03-22T23:05:13.792Z,95.43
2019-03-22T23:07:43.216Z,101.80
2019-03-22T23:10:12.901Z,91.40
2019-03-22T23:12:42.481Z,97.43
2019-03-22T23:15:12.047Z,96.13
2019-03-22T23:17:41.439Z,96.40
2019-03-22T23:20:11.019Z,97.43
2019-03-22T23:22:40.424Z,92.97
2019-03-22T23:25:09.981Z,98.10
2019-03-22T23:27:39.359Z,102.07
2019-03-22T23:30:08.905Z,88.13
2019-03-22T23:32:38.363Z,100.33
2019-03-22T23:35:07.921Z,100.87
2019-03-22T23:37:37.648Z,106.70
2019-03-22T23:40:07.442Z,100.03
2019-03-22T23:42:36.936Z,99.30
2019-03-22T23:45:06.581Z,93.53
2019-03-22T23:47:36.975Z,91.63
2019-03-22T23:50:07.324Z,93.27
2019-03-22T23:52:36.945Z,102.20
2019-03-22T23:55:06.583Z,99.27
2019-03-22T23:57:36.056Z,99.07
